Time;durP1;ratioP1;P1;durP2;ratioP2;P2;SDS_P1;SDS_P2;PMS_P1;PMS_P2;Temp;Humidity;BMP_temperature;BMP_pressure;BME280_temperature;BME280_humidity;BME280_pressure;Samples;Min_cycle;Max_cycle;Signal;HPM_P1;HPM_P2
2023/04/15 20:05:15;;;;;;;333.40;296.73;;;;;;;;;;5036213;28;20621;-51
2023/04/15 20:07:41;;;;;;;406.15;361.55;;;;;;;;;;5030888;28;20208;-53
2023/04/15 20:10:10;;;;;;;583.20;524.70;;;;;;;;;;5031444;28;20180;-57
2023/04/15 20:12:36;;;;;;;664.33;597.90;;;;;;;;;;5032137;28;20811;-45
2023/04/15 20:15:02;;;;;;;600.42;540.15;;;;;;;;;;5031174;28;20229;-47
2023/04/15 20:17:31;;;;;;;576.47;518.78;;;;;;;;;;5031634;28;20208;-57
2023/04/15 20:19:57;;;;;;;640.47;575.90;;;;;;;;;;5030505;28;20198;-54
2023/04/15 20:22:23;;;;;;;812.83;728.38;;;;;;;;;;5023415;28;20663;-50
2023/04/15 20:24:49;;;;;;;747.67;672.45;;;;;;;;;;5011094;28;20212;-56
2023/04/15 20:27:15;;;;;;;753.97;678.45;;;;;;;;;;5011229;28;20176;-56
2023/04/15 20:29:41;;;;;;;739.88;666.53;;;;;;;;;;5011044;28;20177;-57
2023/04/15 20:32:10;;;;;;;741.92;668.40;;;;;;;;;;5011459;28;20181;-57
2023/04/15 20:34:36;;;;;;;734.72;662.17;;;;;;;;;;5010082;28;20219;-57
2023/04/15 20:37:02;;;;;;;720.05;648.67;;;;;;;;;;5002753;28;20239;-57
2023/04/15 20:39:29;;;;;;;721.28;649.30;;;;;;;;;;5010573;28;20353;-57
2023/04/15 20:41:55;;;;;;;707.78;637.70;;;;;;;;;;5010924;28;20623;-57
2023/04/15 20:44:21;;;;;;;701.13;631.47;;;;;;;;;;5011381;28;20209;-57
2023/04/15 20:46:47;;;;;;;689.35;621.17;;;;;;;;;;5011100;28;20189;-57
2023/04/15 20:49:13;;;;;;;685.25;617.50;;;;;;;;;;5009317;28;20188;-57
2023/04/15 20:51:38;;;;;;;680.88;613.42;;;;;;;;;;5010345;28;20634;-57
2023/04/15 20:54:05;;;;;;;659.70;594.72;;;;;;;;;;5010662;28;20238;-57
2023/04/15 20:56:31;;;;;;;654.05;589.50;;;;;;;;;;5011020;28;20193;-57
2023/04/15 20:58:57;;;;;;;640.42;577.08;;;;;;;;;;5010546;28;20226;-58
2023/04/15 21:01:23;;;;;;;628.13;565.80;;;;;;;;;;5011375;28;20568;-57
2023/04/15 21:03:49;;;;;;;619.17;557.90;;;;;;;;;;5010141;28;20251;-57
2023/04/15 21:06:15;;;;;;;615.95;554.38;;;;;;;;;;5008942;28;20209;-56
2023/04/15 21:08:41;;;;;;;602.10;542.25;;;;;;;;;;5010554;28;20263;-56
2023/04/15 21:11:07;;;;;;;590.10;531.17;;;;;;;;;;5011035;28;20288;-56
2023/04/15 21:13:33;;;;;;;576.90;519.33;;;;;;;;;;5010919;28;20229;-56
2023/04/15 21:15:59;;;;;;;568.30;511.38;;;;;;;;;;5001177;28;20285;-56
2023/04/15 21:18:25;;;;;;;562.83;506.67;;;;;;;;;;4996394;28;20264;-56
2023/04/15 21:20:57;;;;;;;548.58;493.58;;;;;;;;;;4996575;28;20264;-56
2023/04/15 21:23:23;;;;;;;539.47;485.15;;;;;;;;;;4997076;28;20197;-57
2023/04/15 21:25:49;;;;;;;527.20;473.98;;;;;;;;;;4997390;28;20203;-57
2023/04/15 21:28:15;;;;;;;520.65;467.90;;;;;;;;;;4997678;28;20223;-57
2023/04/15 21:30:41;;;;;;;509.17;457.38;;;;;;;;;;4997252;28;20186;-57
2023/04/15 21:33:07;;;;;;;496.75;445.88;;;;;;;;;;4996997;28;20204;-57
2023/04/15 21:35:33;;;;;;;485.33;435.13;;;;;;;;;;4994905;28;20273;-57
2023/04/15 21:37:59;;;;;;;477.42;427.90;;;;;;;;;;4997506;28;20223;-57
2023/04/15 21:40:25;;;;;;;466.85;418.10;;;;;;;;;;4996431;28;20185;-57
2023/04/15 21:42:51;;;;;;;456.83;408.75;;;;;;;;;;4997263;28;20188;-57
2023/04/15 21:45:17;;;;;;;456.38;408.70;;;;;;;;;;4995970;28;20268;-57
2023/04/15 21:47:43;;;;;;;441.00;394.05;;;;;;;;;;4996395;28;20272;-57
2023/04/15 21:50:09;;;;;;;427.80;382.02;;;;;;;;;;4996565;28;20208;-56
2023/04/15 21:52:35;;;;;;;421.38;376.05;;;;;;;;;;4996994;28;20264;-56
2023/04/15 21:55:01;;;;;;;412.42;367.92;;;;;;;;;;4995919;28;20263;-56
2023/04/15 21:57:27;;;;;;;403.17;359.10;;;;;;;;;;4996556;28;20268;-57
2023/04/15 21:59:53;;;;;;;396.45;352.88;;;;;;;;;;4996256;28;20507;-57
2023/04/15 22:02:18;;;;;;;386.00;343.88;;;;;;;;;;4997007;28;20185;-57
2023/04/15 22:04:44;;;;;;;377.45;335.85;;;;;;;;;;4996588;28;20227;-57
2023/04/15 22:07:10;;;;;;;363.75;324.15;;;;;;;;;;4996502;28;20213;-57
2023/04/15 22:09:36;;;;;;;363.45;323.73;;;;;;;;;;4995418;28;20188;-57
2023/04/15 22:12:03;;;;;;;355.55;316.58;;;;;;;;;;4996731;28;20296;-56
2023/04/15 22:14:29;;;;;;;343.65;306.35;;;;;;;;;;4995395;28;20185;-56
2023/04/15 22:16:55;;;;;;;337.38;300.38;;;;;;;;;;4995923;28;20188;-57
2023/04/15 22:19:22;;;;;;;328.30;292.77;;;;;;;;;;4996602;28;20181;-57
2023/04/15 22:21:49;;;;;;;320.33;285.55;;;;;;;;;;4996269;28;20185;-57
2023/04/15 22:24:14;;;;;;;305.42;272.23;;;;;;;;;;4995977;28;20197;-56
2023/04/15 22:26:40;;;;;;;308.25;274.45;;;;;;;;;;4993883;28;20193;-56
2023/04/15 22:29:06;;;;;;;293.67;261.85;;;;;;;;;;4990861;28;20204;-56
2023/04/15 22:31:32;;;;;;;292.67;261.10;;;;;;;;;;4996072;28;20173;-56
2023/04/15 22:33:58;;;;;;;281.08;250.65;;;;;;;;;;4996730;28;20213;-56
2023/04/15 22:36:25;;;;;;;273.55;243.38;;;;;;;;;;4995900;28;20284;-57
2023/04/15 22:38:51;;;;;;;272.35;243.07;;;;;;;;;;4995857;28;20178;-56
2023/04/15 22:41:16;;;;;;;259.95;231.82;;;;;;;;;;4996017;28;20616;-56
2023/04/15 22:43:42;;;;;;;259.15;231.10;;;;;;;;;;4994526;28;20217;-57
2023/04/15 22:46:08;;;;;;;251.63;224.00;;;;;;;;;;4995332;28;20185;-56
2023/04/15 22:48:34;;;;;;;241.00;212.93;;;;;;;;;;4995391;28;20204;-57
2023/04/15 22:51:00;;;;;;;236.50;210.50;;;;;;;;;;4995130;28;20240;-57
2023/04/15 22:53:26;;;;;;;233.65;208.10;;;;;;;;;;4995818;28;20557;-57
2023/04/15 22:55:52;;;;;;;229.60;204.60;;;;;;;;;;4995660;28;20279;-56
2023/04/15 22:58:18;;;;;;;222.98;198.23;;;;;;;;;;4993136;28;20206;-57
2023/04/15 23:00:44;;;;;;;218.23;194.48;;;;;;;;;;4993980;28;20285;-57
2023/04/15 23:03:10;;;;;;;215.13;191.73;;;;;;;;;;4995867;28;20185;-56
2023/04/15 23:05:36;;;;;;;201.30;179.35;;;;;;;;;;4995486;28;20292;-57
2023/04/15 23:08:02;;;;;;;199.30;177.48;;;;;;;;;;4994917;28;20181;-56
2023/04/15 23:10:29;;;;;;;197.60;173.38;;;;;;;;;;4995101;28;20191;-56
2023/04/15 23:12:55;;;;;;;194.75;172.77;;;;;;;;;;4993301;28;20235;-56
2023/04/15 23:15:21;;;;;;;185.50;164.48;;;;;;;;;;4993652;28;20552;-56
2023/04/15 23:17:46;;;;;;;181.10;159.40;;;;;;;;;;4995274;28;20473;-56
2023/04/15 23:20:14;;;;;;;175.35;155.05;;;;;;;;;;4995468;28;20185;-57
2023/04/15 23:22:41;;;;;;;169.30;150.18;;;;;;;;;;4994709;28;20901;-57
2023/04/15 23:25:08;;;;;;;168.77;148.73;;;;;;;;;;4993197;28;20240;-57
2023/04/15 23:27:34;;;;;;;168.57;146.52;;;;;;;;;;4995393;28;20184;-57
2023/04/15 23:30:00;;;;;;;164.93;145.73;;;;;;;;;;4995463;28;20177;-56
2023/04/15 23:32:26;;;;;;;155.98;139.10;;;;;;;;;;4994996;28;20259;-56
2023/04/15 23:34:52;;;;;;;151.15;134.43;;;;;;;;;;4994427;28;20189;-56
2023/04/15 23:37:18;;;;;;;147.57;131.32;;;;;;;;;;4995062;28;20193;-56
2023/04/15 23:39:44;;;;;;;149.57;130.52;;;;;;;;;;4994408;28;20189;-56
2023/04/15 23:42:10;;;;;;;141.73;126.25;;;;;;;;;;4994980;28;20564;-56
2023/04/15 23:44:39;;;;;;;136.48;120.75;;;;;;;;;;4994575;28;20240;-56
2023/04/15 23:47:05;;;;;;;137.07;121.93;;;;;;;;;;4994411;28;20188;-57
2023/04/15 23:49:31;;;;;;;130.77;116.22;;;;;;;;;;4993277;28;20269;-57
2023/04/15 23:51:57;;;;;;;130.10;113.22;;;;;;;;;;4995247;28;20515;-57
2023/04/15 23:54:23;;;;;;;126.22;112.55;;;;;;;;;;4994596;28;20177;-57
2023/04/15 23:56:49;;;;;;;122.90;109.45;;;;;;;;;;4994357;28;20223;-57
2023/04/15 23:59:15;;;;;;;120.18;105.05;;;;;;;;;;4995349;28;20209;-57
